KOTM/OTM METAR and TAF weather

Enter ICAO airport designator
Station Type Date Time Source
KOTM METAR 2022/06/28 07:53 UTC NOAA

KOTM 280753Z AUTO 23006KT 10SM CLR 14/13 A3021 RMK AO2 SLP226 T01440128


Station Type Date Time Source
KOTM Decoded METAR 2022/06/28 07:53 UTC NOAA

OTTUMWA INDUSTRIAL AIRPORT, IA, United States (KOTM) 41-06N 092-27W 256M
Jun 28, 2022 - 03:53 AM EDT / 2022.06.28 0753 UTC
Wind: from the SW (230 degrees) at 7 MPH (6 KT):0
Visibility: 10 mile(s):0
Sky conditions: clear
Temperature: 57.9 F (14.4 C)
Dew Point: 55.0 F (12.8 C)
Relative Humidity: 90%
Pressure (altimeter): 30.21 in. Hg (1023 hPa)
ob: KOTM 280753Z AUTO 23006KT 10SM CLR 14/13 A3021 RMK AO2 SLP226 T01440128
cycle: 8

Station Type Date Time Source
KOTM TAF 2022/06/28 06:22 UTC NOAA

TAF KOTM 280520Z 2806/2906 21005KT P6SM SKC
FM281600 22010G21KT P6SM FEW250
FM290300 20007KT P6SM FEW250

Example: see airport list